NCAR-RAP Real-Time Weather Data

Output produced by METARs form (20 February 2019  17:47 UTC)
found at http://weather.rap.ucar.edu/surface/
 
RJTF 200700Z 12010KT 9999 FEW030 BKN050 BKN070 16/10 Q1010
RJTF 200600Z 13010KT 090V160 9999 FEW030 SCT050 18/10 Q1009
RJTF 200500Z 11008KT 070V150 9999 FEW030 SCT070 19/09 Q1009
RJTF 200400Z 10005KT 010V140 9999 FEW030 SCT070 19/08 Q1010
RJTF 200300Z 03007KT 360V080 9999 FEW030 18/07 Q1010
RJTF 200200Z 36009KT 320V030 9999 FEW030 17/07 Q1010
RJTF 200100Z 36009KT 9999 FEW025 15/08 Q1010
RJTF 200000Z 02003KT 350V080 8000 FEW020 10/07 Q1010
RJTF 192330Z 19004KT 160V240 7000 FEW020 SCT/// 08/06 Q1011
RJTF 190700Z 20007KT 150V250 9999 FEW020 SCT040 BKN070 13/04 Q1018
RJTF 190600Z 21008KT 160V240 9999 FEW020 SCT040 BKN070 13/06 Q1019
RJTF 190500Z 16006KT 9999 FEW020 SCT040 BKN100 12/04 Q1020
RJTF 190400Z 17003KT 150V210 9999 FEW020 BKN040 BKN100 10/02 Q1021
RJTF 190300Z 13003KT 090V170 9999 FEW030 BKN050 BKN110 10/M00 Q1022
RJTF 190200Z VRB02KT 9999 FEW030 BKN050 BKN110 09/M01 Q1024
RJTF 190100Z 00000KT 9999 FEW030 BKN120 BKN140 09/M01 Q1025
RJTF 190000Z VRB01KT 9999 FEW030 BKN120 BKN140 08/M02 Q1026
RJTF 182330Z 00000KT 9999 FEW030 BKN120 BKN140 08/M02 Q1026
RJTF 180700Z 16007KT 130V210 9999 FEW030 13/M01 Q1023
RJTF 180600Z VRB02KT 9999 FEW030 14/M01 Q1022